Time;durP1;ratioP1;P1;durP2;ratioP2;P2;SDS_P1;SDS_P2;PMS_P1;PMS_P2;Temp;Humidity;BMP_temperature;BMP_pressure;BME280_temperature;BME280_humidity;BME280_pressure;Samples;Min_cycle;Max_cycle;Signal;HPM_P1;HPM_P2
2021/08/09 00:01:43;;;;;;;15.50;5.30;;;;;;;11.75;100.00;101398.81;5223760;28;20486;-80
2021/08/09 00:04:13;;;;;;;12.68;3.97;;;;;;;11.77;100.00;101396.81;5223979;28;20024;-80
2021/08/09 00:06:44;;;;;;;14.40;4.28;;;;;;;11.73;100.00;101397.28;5224445;28;20025;-81
2021/08/09 00:09:14;;;;;;;13.52;3.92;;;;;;;11.74;100.00;101394.41;5241336;28;20017;-82
2021/08/09 00:11:45;;;;;;;10.30;4.72;;;;;;;11.74;100.00;101393.59;5241443;28;20028;-81
2021/08/09 00:14:16;;;;;;;12.15;4.03;;;;;;;11.72;100.00;101401.81;5241900;28;20443;-81
2021/08/09 00:16:46;;;;;;;16.52;5.05;;;;;;;11.75;100.00;101398.81;5242950;28;20025;-82
2021/08/09 00:19:17;;;;;;;17.13;4.00;;;;;;;11.75;100.00;101397.97;5242538;28;20017;-81
2021/08/09 00:21:47;;;;;;;15.68;4.38;;;;;;;11.74;100.00;101402.47;5242406;28;20029;-82
2021/08/09 00:24:17;;;;;;;12.90;3.85;;;;;;;11.75;100.00;101396.13;5242736;28;20228;-82
2021/08/09 00:26:48;;;;;;;10.25;3.83;;;;;;;11.73;100.00;101400.81;5242666;28;20025;-81
2021/08/09 00:29:19;;;;;;;11.90;4.20;;;;;;;11.72;100.00;101399.13;5242199;28;20025;-81
2021/08/09 00:31:49;;;;;;;10.52;3.95;;;;;;;11.71;100.00;101397.44;5234592;28;20031;-81
2021/08/09 00:34:20;;;;;;;7.55;3.67;;;;;;;11.68;100.00;101403.97;5241482;28;20036;-82
2021/08/09 00:36:50;;;;;;;15.75;3.60;;;;;;;11.65;100.00;101400.78;5240906;28;20035;-82
2021/08/09 00:39:21;;;;;;;15.02;4.55;;;;;;;11.64;100.00;101407.97;5243334;28;20482;-81
2021/08/09 00:41:51;;;;;;;13.82;4.00;;;;;;;11.60;100.00;101403.09;5247999;28;20013;-82
2021/08/09 00:44:22;;;;;;;18.33;4.18;;;;;;;11.57;100.00;101404.25;5248248;28;20032;-82
2021/08/09 00:46:54;;;;;;;15.77;4.38;;;;;;;11.58;100.00;101405.94;5247461;28;20126;-81
2021/08/09 00:49:24;;;;;;;11.65;3.72;;;;;;;11.57;100.00;101398.03;5242325;28;20035;-80
2021/08/09 00:51:56;;;;;;;14.30;4.28;;;;;;;11.56;100.00;101399.88;5240366;28;20048;-80
2021/08/09 00:54:26;;;;;;;16.40;3.83;;;;;;;11.55;100.00;101394.69;5240374;28;20467;-81
2021/08/09 00:56:57;;;;;;;12.07;4.30;;;;;;;11.53;100.00;101397.50;5240251;28;20060;-81
2021/08/09 00:59:29;;;;;;;15.20;4.22;;;;;;;11.60;100.00;101401.25;5239964;28;20063;-82
2021/08/09 01:01:59;;;;;;;14.13;3.92;;;;;;;11.61;100.00;101396.72;5241054;28;20025;-81
2021/08/09 01:04:30;;;;;;;14.57;4.45;;;;;;;11.59;100.00;101396.03;5241039;28;20044;-81
2021/08/09 01:07:21;;;;;;;9.27;3.55;;;;;;;11.57;100.00;101390.81;5240640;28;20039;-81
2021/08/09 01:09:57;;;;;;;21.05;4.68;;;;;;;11.60;100.00;101398.56;5240939;28;20023;-82
2021/08/09 01:12:45;;;;;;;14.65;4.63;;;;;;;11.64;100.00;101396.38;5241126;28;20024;-80
2021/08/09 01:15:23;;;;;;;16.17;4.13;;;;;;;11.68;100.00;101395.91;5240109;28;20029;-82
2021/08/09 01:18:04;;;;;;;10.68;4.22;;;;;;;11.69;100.00;101399.44;5240180;28;20051;-81
2021/08/09 01:20:47;;;;;;;11.88;3.88;;;;;;;11.67;100.00;101394.22;5239253;28;20319;-81
2021/08/09 01:23:45;;;;;;;17.33;3.83;;;;;;;11.67;100.00;101396.91;5231318;28;20540;-81
2021/08/09 01:26:37;;;;;;;15.05;4.22;;;;;;;11.69;100.00;101396.75;5216842;28;20048;-80
2021/08/09 01:29:12;;;;;;;13.68;4.22;;;;;;;11.69;100.00;101394.06;5226482;28;20016;-80
2021/08/09 01:31:44;;;;;;;;;;;;;;;11.71;100.00;101401.97;5217397;28;20029;-81
2021/08/09 01:34:16;;;;;;;13.95;4.15;;;;;;;11.70;100.00;101397.59;5223450;28;19908;-80
2021/08/09 01:36:50;;;;;;;10.82;3.88;;;;;;;11.67;100.00;101399.59;5205795;28;20482;-80
2021/08/09 01:39:21;;;;;;;12.52;4.20;;;;;;;11.66;100.00;101397.09;5222851;28;20029;-80
2021/08/09 01:41:53;;;;;;;15.48;3.92;;;;;;;11.66;100.00;101397.94;5222995;28;20028;-79
2021/08/09 01:44:25;;;;;;;13.80;4.53;;;;;;;11.69;100.00;101399.44;5223439;28;20406;-80
2021/08/09 01:46:56;;;;;;;10.68;3.92;;;;;;;11.71;100.00;101393.91;5223327;28;20041;-80
2021/08/09 01:49:30;;;;;;;21.70;4.22;;;;;;;11.77;100.00;101398.66;5223176;28;20021;-80
2021/08/09 01:52:08;;;;;;;20.15;4.28;;;;;;;11.84;100.00;101402.41;5222782;28;20017;-80
2021/08/09 01:54:39;;;;;;;12.00;4.20;;;;;;;11.87;100.00;101402.09;5223171;28;20029;-80
2021/08/09 01:57:14;;;;;;;15.50;4.13;;;;;;;11.90;100.00;101402.63;5210071;28;20024;-80
2021/08/09 01:59:47;;;;;;;12.77;4.20;;;;;;;11.93;100.00;101399.59;5222199;28;20238;-80
2021/08/09 02:02:27;;;;;;;20.10;4.88;;;;;;;11.96;100.00;101406.50;5222022;28;20021;-79
2021/08/09 02:05:04;;;;;;;12.27;4.57;;;;;;;12.00;100.00;101405.19;5222239;28;20049;-80
2021/08/09 02:07:39;;;;;;;14.73;4.25;;;;;;;12.03;100.00;101407.53;5222432;28;20024;-80
2021/08/09 02:10:12;;;;;;;18.97;4.37;;;;;;;12.02;100.00;101410.38;5221932;28;20092;-79
2021/08/09 02:13:03;;;;;;;11.20;4.10;;;;;;;12.00;100.00;101409.69;5221949;28;20124;-81
2021/08/09 02:15:52;;;;;;;13.55;4.28;;;;;;;11.97;100.00;101410.88;5222057;28;20033;-80
2021/08/09 02:18:44;;;;;;;14.05;3.90;;;;;;;11.97;100.00;101410.03;5222150;28;20625;-79
2021/08/09 02:21:16;;;;;;;15.57;4.53;;;;;;;11.97;100.00;101410.03;5221459;28;20025;-80
2021/08/09 02:23:51;;;;;;;9.65;3.85;;;;;;;12.07;100.00;101408.06;5221399;28;20059;-80
2021/08/09 02:26:34;;;;;;;13.13;3.85;;;;;;;12.12;100.00;101413.78;5221512;28;20036;-79
2021/08/09 02:29:10;;;;;;;16.35;5.20;;;;;;;12.17;100.00;101414.97;5221608;28;20055;-80
2021/08/09 02:31:43;;;;;;;18.52;4.10;;;;;;;12.19;100.00;101414.81;5214194;28;20123;-80
2021/08/09 02:34:17;;;;;;;17.42;4.10;;;;;;;12.27;100.00;101414.84;5221365;28;20021;-80
2021/08/09 02:36:48;;;;;;;13.05;4.15;;;;;;;12.30;100.00;101411.84;5221097;28;20032;-79
2021/08/09 02:39:19;;;;;;;15.43;4.18;;;;;;;12.33;100.00;101408.81;5220757;28;20036;-79
2021/08/09 02:41:50;;;;;;;12.80;4.25;;;;;;;12.36;100.00;101413.03;5220984;28;20040;-81
2021/08/09 02:44:21;;;;;;;19.00;4.72;;;;;;;12.37;100.00;101409.31;5221045;28;20036;-80
2021/08/09 02:46:53;;;;;;;16.02;5.47;;;;;;;12.42;100.00;101420.44;5220462;28;20025;-79
2021/08/09 02:49:25;;;;;;;17.98;4.05;;;;;;;12.48;100.00;101408.16;5220521;28;20494;-80
2021/08/09 02:51:56;;;;;;;17.15;4.35;;;;;;;12.54;100.00;101407.50;5220278;28;20382;-78
2021/08/09 02:54:28;;;;;;;17.38;4.35;;;;;;;12.56;100.00;101403.66;5220388;28;20028;-80
2021/08/09 02:56:59;;;;;;;11.13;4.00;;;;;;;12.59;100.00;101403.31;5219335;28;20111;-80
2021/08/09 02:59:29;;;;;;;17.52;4.63;;;;;;;12.59;100.00;101402.47;5219505;28;20032;-81
2021/08/09 03:02:01;;;;;;;13.13;4.32;;;;;;;12.59;100.00;101391.69;5220320;28;20025;-80
2021/08/09 03:04:35;;;;;;;16.65;4.55;;;;;;;12.58;100.00;101408.88;5202341;28;20041;-80
2021/08/09 03:07:08;;;;;;;14.18;4.38;;;;;;;12.60;100.00;101413.09;5220167;28;20063;-80
2021/08/09 03:09:40;;;;;;;14.48;4.68;;;;;;;12.64;100.00;101421.66;5221245;28;20017;-81
2021/08/09 03:12:16;;;;;;;20.10;4.78;;;;;;;12.67;100.00;101416.78;5221802;28;20028;-80
2021/08/09 03:14:53;;;;;;;18.13;5.13;;;;;;;12.76;100.00;101408.72;5221608;28;20040;-79
2021/08/09 03:17:23;;;;;;;18.23;5.20;;;;;;;12.77;100.00;101415.78;5202225;28;20051;-81
2021/08/09 03:19:53;;;;;;;18.42;4.68;;;;;;;12.81;100.00;101411.78;5219736;28;20518;-81
2021/08/09 03:22:24;;;;;;;17.90;5.00;;;;;;;12.89;100.00;101415.28;5203601;28;20029;-80
2021/08/09 03:24:54;;;;;;;15.85;4.80;;;;;;;12.90;100.00;101413.44;5224144;28;20379;-80
2021/08/09 03:27:25;;;;;;;13.27;4.22;;;;;;;12.94;100.00;101410.25;5223442;28;20397;-81
2021/08/09 03:29:55;;;;;;;19.20;4.68;;;;;;;12.95;100.00;101417.34;5219363;28;20051;-80
2021/08/09 03:32:26;;;;;;;17.27;4.72;;;;;;;12.98;100.00;101418.00;5221201;28;20063;-80
2021/08/09 03:34:56;;;;;;;12.38;4.55;;;;;;;12.99;100.00;101420.50;5223850;28;20032;-81
2021/08/09 03:37:27;;;;;;;12.18;4.40;;;;;;;12.99;100.00;101419.66;5223592;28;20276;-81
2021/08/09 03:39:57;;;;;;;13.38;4.68;;;;;;;12.99;100.00;101419.66;5205342;28;20075;-80
2021/08/09 03:42:27;;;;;;;22.27;5.78;;;;;;;13.00;100.00;101419.50;5223650;28;20036;-80
2021/08/09 03:44:58;;;;;;;18.35;4.68;;;;;;;13.00;100.00;101419.50;5223510;28;20087;-81
2021/08/09 03:47:28;;;;;;;14.82;4.03;;;;;;;13.03;100.00;101427.25;5223633;28;20033;-80
2021/08/09 03:49:59;;;;;;;19.73;4.65;;;;;;;13.03;100.00;101426.41;5223760;28;20017;-81
2021/08/09 03:52:30;;;;;;;12.23;4.35;;;;;;;13.01;100.00;101426.59;5205717;28;20096;-81
2021/08/09 03:55:00;;;;;;;14.77;4.20;;;;;;;13.01;100.00;101434.66;5223882;28;20103;-81
2021/08/09 03:57:30;;;;;;;14.52;4.25;;;;;;;12.99;100.00;101431.28;5223960;28;20028;-80
2021/08/09 04:00:03;;;;;;;16.95;5.03;;;;;;;12.99;100.00;101435.81;5223786;28;20079;-80
2021/08/09 04:02:34;;;;;;;15.55;4.78;;;;;;;12.99;100.00;101431.28;5223415;28;20090;-80
2021/08/09 04:05:07;;;;;;;8.88;4.22;;;;;;;12.96;100.00;101428.94;5222927;28;20050;-80
2021/08/09 04:07:38;;;;;;;18.10;4.65;;;;;;;12.98;100.00;101421.53;5223617;28;20021;-81
2021/08/09 04:10:09;;;;;;;14.68;4.53;;;;;;;13.00;100.00;101415.97;5223849;28;20033;-80
2021/08/09 04:12:39;;;;;;;21.13;4.63;;;;;;;13.04;100.00;101418.16;5222985;28;20033;-81
2021/08/09 04:15:10;;;;;;;14.13;5.43;;;;;;;13.02;100.00;101416.66;5223495;28;20032;-81
2021/08/09 04:17:40;;;;;;;20.27;4.78;;;;;;;13.03;100.00;101418.31;5223432;28;20098;-80
2021/08/09 04:20:11;;;;;;;10.85;4.05;;;;;;;13.03;100.00;101423.72;5223325;28;20029;-80
2021/08/09 04:22:41;;;;;;;13.23;4.07;;;;;;;13.03;100.00;101429.09;5223280;28;20111;-80
2021/08/09 04:25:12;;;;;;;9.20;4.07;;;;;;;13.03;100.00;101423.72;5223236;28;20057;-81
2021/08/09 04:27:42;;;;;;;12.55;4.30;;;;;;;13.03;100.00;101431.78;5222817;28;20025;-79
2021/08/09 04:30:13;;;;;;;10.50;3.58;;;;;;;13.02;100.00;101422.03;5222759;28;20104;-80
2021/08/09 04:32:43;;;;;;;20.77;5.05;;;;;;;13.05;100.00;101419.00;5222949;28;20033;-80
2021/08/09 04:35:15;;;;;;;22.67;4.55;;;;;;;13.07;100.00;101423.22;5222848;28;20025;-80
2021/08/09 04:37:45;;;;;;;21.40;4.57;;;;;;;13.08;100.00;101426.75;5223175;28;20321;-80
2021/08/09 04:40:16;;;;;;;11.40;3.72;;;;;;;13.08;100.00;101413.28;5225641;28;20717;-81
2021/08/09 04:42:46;;;;;;;20.75;4.30;;;;;;;13.08;100.00;101415.97;5229074;28;20047;-80
2021/08/09 04:45:17;;;;;;;10.73;4.25;;;;;;;13.08;100.00;101419.50;5228585;28;20269;-81
2021/08/09 04:47:47;;;;;;;13.60;3.90;;;;;;;13.08;100.00;101413.28;5229117;28;20513;-81
2021/08/09 04:50:18;;;;;;;12.95;3.85;;;;;;;13.10;100.00;101422.88;5228664;28;20080;-81
2021/08/09 04:52:48;;;;;;;9.48;3.58;;;;;;;13.15;100.00;101425.91;5228969;28;20021;-81
2021/08/09 04:55:19;;;;;;;11.63;4.22;;;;;;;13.17;100.00;101426.56;5228659;28;20048;-81
2021/08/09 04:57:49;;;;;;;15.77;4.45;;;;;;;13.17;100.00;101421.19;5229051;28;20044;-81
2021/08/09 05:00:19;;;;;;;13.65;3.60;;;;;;;13.18;100.00;101422.88;5229125;28;20036;-80
2021/08/09 05:02:50;;;;;;;13.50;4.70;;;;;;;13.20;100.00;101411.91;5228156;28;20125;-80
2021/08/09 05:05:20;;;;;;;18.85;3.75;;;;;;;13.18;100.00;101403.16;5229341;28;20028;-80
2021/08/09 05:07:55;;;;;;;13.60;3.88;;;;;;;13.20;100.00;101411.91;5228735;28;20073;-80
2021/08/09 05:10:26;;;;;;;21.58;3.72;;;;;;;13.22;100.00;101409.94;5228693;28;20028;-81
2021/08/09 05:12:56;;;;;;;9.10;3.45;;;;;;;13.24;100.00;101410.59;5228649;28;20024;-81
2021/08/09 05:15:28;;;;;;;12.15;3.55;;;;;;;13.29;100.00;101415.47;5228423;28;20044;-82
2021/08/09 05:17:59;;;;;;;12.20;3.88;;;;;;;13.34;100.00;101403.16;5228807;28;20028;-80
2021/08/09 05:20:30;;;;;;;14.05;3.38;;;;;;;13.39;100.00;101410.75;5228180;28;20102;-80
2021/08/09 05:23:00;;;;;;;13.60;4.13;;;;;;;13.46;100.00;101409.06;5228587;28;20386;-81
2021/08/09 05:25:33;;;;;;;7.65;3.15;;;;;;;13.55;100.00;101418.78;5227454;28;20021;-81
2021/08/09 05:28:04;;;;;;;12.10;3.47;;;;;;;13.66;100.00;101428.41;5227283;28;20367;-80
2021/08/09 05:30:34;;;;;;;10.68;3.30;;;;;;;13.71;100.00;101420.63;5218413;28;20036;-80
2021/08/09 05:33:05;;;;;;;12.82;3.17;;;;;;;13.77;100.00;101425.34;5228157;28;20028;-80
2021/08/09 05:35:37;;;;;;;5.95;2.22;;;;;;;13.80;100.00;101421.44;5226801;28;20112;-79
2021/08/09 05:38:10;;;;;;;14.23;3.00;;;;;;;13.81;100.00;101425.84;5227119;28;20029;-78
2021/08/09 05:40:43;;;;;;;6.65;2.88;;;;;;;13.80;100.00;101426.81;5227320;28;20029;-80
2021/08/09 05:43:13;;;;;;;9.40;3.35;;;;;;;13.79;100.00;101422.44;5227888;28;20039;-80
2021/08/09 05:45:44;;;;;;;7.95;3.10;;;;;;;13.79;100.00;101417.91;5227451;28;20028;-81
2021/08/09 05:48:14;;;;;;;11.20;2.58;;;;;;;13.84;100.00;101422.78;5228175;28;20401;-80
2021/08/09 05:50:45;;;;;;;5.85;2.88;;;;;;;13.84;100.00;101422.78;5226686;28;20105;-81
2021/08/09 05:53:15;;;;;;;8.32;2.78;;;;;;;13.90;100.00;101424.78;5225771;28;20032;-81
2021/08/09 05:55:46;;;;;;;12.13;3.20;;;;;;;13.95;100.00;101428.63;5224959;28;20408;-81
2021/08/09 05:58:16;;;;;;;6.13;2.58;;;;;;;14.06;100.00;101426.59;5226951;28;20032;-80
2021/08/09 06:00:47;;;;;;;8.82;3.05;;;;;;;14.38;100.00;101428.28;5225552;28;20025;-80
2021/08/09 06:03:21;;;;;;;9.25;2.53;;;;;;;14.76;100.00;101431.97;5225988;28;20020;-81
2021/08/09 06:05:53;;;;;;;10.73;3.00;;;;;;;15.22;100.00;101434.66;5225125;28;20036;-79
2021/08/09 06:08:24;;;;;;;5.43;2.78;;;;;;;16.10;100.00;101431.19;5212048;28;20108;-82
2021/08/09 06:10:54;;;;;;;8.50;2.10;;;;;;;16.62;100.00;101424.75;5225914;28;20150;-80
2021/08/09 06:13:25;;;;;;;8.18;2.13;;;;;;;17.29;100.00;101431.66;5224122;28;20402;-81
2021/08/09 06:15:55;;;;;;;7.47;1.88;;;;;;;17.94;100.00;101432.34;5224251;28;20091;-80
2021/08/09 06:18:25;;;;;;;4.75;1.98;;;;;;;18.65;100.00;101438.25;5224350;28;20056;-81
2021/08/09 06:20:56;;;;;;;6.22;2.30;;;;;;;18.32;100.00;101444.44;5224333;28;20025;-81
2021/08/09 06:23:27;;;;;;;7.03;2.00;;;;;;;17.42;100.00;101441.75;5225067;28;20025;-81
2021/08/09 06:25:57;;;;;;;3.92;1.90;;;;;;;16.96;100.00;101440.31;5222427;28;20109;-79
2021/08/09 06:28:28;;;;;;;7.05;1.92;;;;;;;16.80;100.00;101444.13;5203135;28;20052;-81
2021/08/09 06:30:58;;;;;;;14.60;2.72;;;;;;;16.55;100.00;101442.78;5212019;28;20025;-80
2021/08/09 06:33:29;;;;;;;3.05;1.85;;;;;;;16.30;100.00;101445.81;5220377;28;20628;-80
2021/08/09 06:35:59;;;;;;;8.93;2.38;;;;;;;16.23;100.00;101449.47;5221507;28;20082;-80
2021/08/09 06:38:29;;;;;;;6.47;2.30;;;;;;;15.98;100.00;101444.38;5221549;28;20098;-80
2021/08/09 06:41:00;;;;;;;7.60;2.03;;;;;;;15.75;100.00;101449.84;5221292;28;20128;-79
2021/08/09 06:43:30;;;;;;;12.05;2.20;;;;;;;15.83;100.00;101450.81;5221484;28;20025;-80
2021/08/09 06:46:01;;;;;;;8.10;2.40;;;;;;;15.97;100.00;101458.09;5221549;28;20021;-81
2021/08/09 06:48:31;;;;;;;4.57;2.00;;;;;;;16.23;100.00;101463.84;5221947;28;20963;-81
2021/08/09 06:51:02;;;;;;;11.13;2.15;;;;;;;16.24;100.00;101454.69;5221573;28;20506;-81
2021/08/09 06:53:32;;;;;;;7.28;1.95;;;;;;;16.30;100.00;101447.69;5221495;28;20525;-81
2021/08/09 06:56:03;;;;;;;5.90;1.90;;;;;;;16.47;100.00;101456.44;5221396;28;20375;-81
2021/08/09 06:58:33;;;;;;;7.25;1.90;;;;;;;16.54;100.00;101462.78;5221932;28;20029;-80
2021/08/09 07:01:04;;;;;;;5.60;2.22;;;;;;;16.72;100.00;101454.28;5221882;28;20025;-81
2021/08/09 07:03:34;;;;;;;9.82;1.88;;;;;;;16.45;100.00;101455.78;5221348;28;20028;-82
2021/08/09 07:06:05;;;;;;;7.07;2.15;;;;;;;16.56;100.00;101458.00;5221852;28;20150;-81
2021/08/09 07:08:35;;;;;;;6.22;2.20;;;;;;;16.60;100.00;101458.47;5221819;28;20033;-80
2021/08/09 07:11:06;;;;;;;9.90;1.85;;;;;;;16.91;100.00;101461.75;5221404;28;20101;-81
2021/08/09 07:13:36;;;;;;;4.28;1.55;;;;;;;16.96;100.00;101463.88;5221617;28;20382;-80
2021/08/09 07:16:07;;;;;;;5.13;1.60;;;;;;;17.05;100.00;101450.00;5203692;28;20386;-81
2021/08/09 07:18:37;;;;;;;4.13;1.80;;;;;;;16.99;100.00;101460.78;5221505;28;20393;-81
2021/08/09 07:21:10;;;;;;;6.28;2.00;;;;;;;17.17;100.00;101463.03;5221086;28;20040;-81
2021/08/09 07:23:41;;;;;;;5.30;1.75;;;;;;;17.12;100.00;101460.94;5221622;28;20104;-81
2021/08/09 07:26:11;;;;;;;3.55;1.63;;;;;;;17.15;100.00;101457.81;5221340;28;20432;-83
2021/08/09 07:28:42;;;;;;;5.63;2.20;;;;;;;17.41;100.00;101459.06;5221245;28;20036;-80
2021/08/09 07:31:13;;;;;;;6.82;2.08;;;;;;;17.39;100.00;101463.84;5215098;28;20151;-86
2021/08/09 07:33:46;;;;;;;4.45;1.70;;;;;;;17.43;100.00;101460.56;5222263;28;20108;-83
2021/08/09 07:36:17;;;;;;;15.05;1.88;;;;;;;17.25;100.00;101460.19;5225397;28;20032;-84
2021/08/09 07:38:47;;;;;;;2.58;1.35;;;;;;;17.20;100.00;101463.47;5223581;28;20021;-81
2021/08/09 07:41:18;;;;;;;9.00;2.22;;;;;;;17.24;100.00;101462.06;5225965;28;20025;-82
2021/08/09 07:43:49;;;;;;;14.48;2.30;;;;;;;17.22;100.00;101464.16;5225313;28;20315;-79
2021/08/09 07:46:19;;;;;;;10.50;2.22;;;;;;;17.27;100.00;101468.97;5226068;28;20106;-80
2021/08/09 07:48:50;;;;;;;7.97;1.77;;;;;;;17.41;100.00;101470.75;5225824;28;20502;-81
2021/08/09 07:51:20;;;;;;;5.43;1.73;;;;;;;17.42;100.00;101467.03;5225756;28;20017;-80
2021/08/09 07:53:51;;;;;;;5.47;1.92;;;;;;;17.45;100.00;101472.03;5226774;28;20032;-80
2021/08/09 07:56:22;;;;;;;4.05;1.67;;;;;;;17.25;100.00;101468.31;5225434;28;20052;-81
2021/08/09 07:58:52;;;;;;;5.50;1.75;;;;;;;17.15;100.00;101465.94;5221942;28;20035;-82
2021/08/09 08:01:23;;;;;;;10.13;1.77;;;;;;;17.04;100.00;101461.88;5217849;28;20122;-81
2021/08/09 08:03:53;;;;;;;6.15;1.58;;;;;;;16.92;100.00;101470.72;5224911;28;20021;-80
2021/08/09 08:06:24;;;;;;;3.97;1.83;;;;;;;16.98;100.00;101468.09;5224865;28;20028;-81
2021/08/09 08:08:54;;;;;;;13.18;1.77;;;;;;;17.22;100.00;101463.28;5225326;28;20017;-78
2021/08/09 08:11:25;;;;;;;6.72;2.20;;;;;;;17.22;100.00;101466.84;5227554;28;20025;-81
2021/08/09 08:13:55;;;;;;;6.25;2.10;;;;;;;17.51;100.00;101467.69;5228171;28;20017;-80
2021/08/09 08:16:26;;;;;;;6.65;2.03;;;;;;;17.84;100.00;101460.69;5227936;28;20040;-81
2021/08/09 08:18:57;;;;;;;4.72;1.80;;;;;;;17.82;100.00;101464.59;5226769;28;20024;-81
2021/08/09 08:21:28;;;;;;;6.45;1.60;;;;;;;17.97;100.00;101461.78;5227108;28;20413;-83
2021/08/09 08:23:58;;;;;;;4.07;1.60;;;;;;;17.99;100.00;101457.84;5225609;28;20048;-84
2021/08/09 08:26:29;;;;;;;8.85;1.95;;;;;;;17.89;100.00;101459.25;5227544;28;20127;-81
2021/08/09 08:28:59;;;;;;;3.33;1.80;;;;;;;17.83;100.00;101467.16;5227577;28;20029;-81
2021/08/09 08:31:30;;;;;;;5.60;1.70;;;;;;;18.02;100.00;101471.03;5227235;28;20112;-80
2021/08/09 08:34:01;;;;;;;3.40;1.77;;;;;;;17.94;100.00;101465.75;5209087;28;20033;-81
2021/08/09 08:36:31;;;;;;;9.52;2.00;;;;;;;17.93;100.00;101465.97;5227882;28;20025;-82
2021/08/09 08:39:02;;;;;;;4.15;2.00;;;;;;;17.75;100.00;101469.16;5226859;28;20051;-81
2021/08/09 08:41:34;;;;;;;7.13;2.22;;;;;;;17.86;100.00;101466.72;5227212;28;20029;-80
2021/08/09 08:44:05;;;;;;;8.80;2.10;;;;;;;17.99;100.00;101470.59;5214532;28;20024;-81
2021/08/09 08:46:38;;;;;;;4.70;1.65;;;;;;;17.96;100.00;101470.97;5228199;28;20029;-81
2021/08/09 08:49:13;;;;;;;9.20;2.05;;;;;;;18.04;100.00;101468.94;5227493;28;20025;-81
2021/08/09 08:51:47;;;;;;;8.30;1.98;;;;;;;18.30;100.00;101464.69;5226525;28;20029;-81
2021/08/09 08:54:19;;;;;;;5.53;2.15;;;;;;;18.57;100.00;101462.88;5228025;28;20066;-81
2021/08/09 08:56:49;;;;;;;4.32;1.90;;;;;;;18.74;100.00;101469.69;5226680;28;20025;-80
2021/08/09 08:59:20;;;;;;;6.07;1.92;;;;;;;18.65;100.00;101454.56;5227275;28;20025;-82
2021/08/09 09:01:51;;;;;;;8.75;1.83;;;;;;;18.59;100.00;101456.22;5226120;28;20033;-80
2021/08/09 09:04:26;;;;;;;7.25;1.38;;;;;;;18.51;100.00;101464.53;5226163;28;20151;-81
2021/08/09 09:07:00;;;;;;;10.32;1.55;;;;;;;18.57;100.00;101469.16;5226919;28;20028;-80
2021/08/09 09:09:36;;;;;;;7.53;1.50;;;;;;;18.47;100.00;101466.00;5226123;28;20059;-80
2021/08/09 09:12:14;;;;;;;5.90;1.48;;;;;;;18.48;100.00;101470.41;5226771;28;20114;-79
2021/08/09 09:15:00;;;;;;;3.33;1.65;;;;;;;18.38;100.00;101468.06;5226802;28;20091;-84
2021/08/09 09:17:32;;;;;;;10.80;2.10;;;;;;;18.72;100.00;101482.63;5226424;28;20482;-80
2021/08/09 09:20:23;;;;;;;5.80;1.77;;;;;;;19.22;100.00;101477.69;5225525;28;20090;-81
2021/08/09 09:23:14;;;;;;;5.22;1.27;;;;;;;19.23;100.00;101484.84;5226563;28;20032;-82
2021/08/09 09:25:47;;;;;;;4.65;1.83;;;;;;;19.31;100.00;101478.34;5207425;28;20414;-82
2021/08/09 09:28:24;;;;;;;5.93;2.08;;;;;;;19.80;100.00;101483.38;5225833;28;20479;-82
2021/08/09 09:31:00;;;;;;;4.60;1.42;;;;;;;19.50;100.00;101482.13;5225555;28;20566;-82
2021/08/09 09:33:31;;;;;;;4.20;1.45;;;;;;;19.69;100.00;101483.19;5225930;28;20224;-82
2021/08/09 09:36:05;;;;;;;8.43;1.98;;;;;;;19.86;100.00;101473.50;5227007;28;20040;-81
2021/08/09 09:38:42;;;;;;;3.88;1.40;;;;;;;20.17;100.00;101486.44;5226865;28;20098;-82
2021/08/09 09:41:13;;;;;;;8.88;1.42;;;;;;;20.16;100.00;101482.88;5226057;28;20722;-81
2021/08/09 09:43:45;;;;;;;9.27;1.35;;;;;;;20.30;100.00;101500.00;5226220;28;20060;-79
2021/08/09 09:46:26;;;;;;;6.38;1.58;;;;;;;20.20;100.00;101496.06;5223858;28;20029;-81
2021/08/09 09:49:01;;;;;;;5.63;1.25;;;;;;;20.26;100.00;101485.13;5227497;28;20115;-82
2021/08/09 09:51:42;;;;;;;2.35;1.33;;;;;;;20.03;100.00;101485.66;5226752;28;20029;-79
2021/08/09 09:54:13;;;;;;;6.50;1.83;;;;;;;19.97;100.00;101489.19;5228326;28;20317;-82
2021/08/09 09:56:44;;;;;;;3.95;1.50;;;;;;;19.55;100.00;101498.66;5209531;28;20021;-80
2021/08/09 09:59:14;;;;;;;5.28;1.55;;;;;;;19.34;100.00;101497.81;5207748;28;20059;-81
2021/08/09 10:01:45;;;;;;;3.75;1.70;;;;;;;19.15;100.00;101498.63;5225895;28;20021;-80
2021/08/09 10:04:16;;;;;;;5.25;1.73;;;;;;;19.15;100.00;101498.63;5226065;28;20055;-80
2021/08/09 10:06:47;;;;;;;3.53;1.45;;;;;;;18.95;100.00;101504.03;5225972;28;20036;-81
2021/08/09 10:09:18;;;;;;;6.40;1.63;;;;;;;18.73;100.00;101497.91;5226878;28;20095;-79
2021/08/09 10:11:49;;;;;;;5.10;1.80;;;;;;;18.87;100.00;101498.75;5227317;28;20029;-81
2021/08/09 10:14:20;;;;;;;8.88;2.00;;;;;;;18.93;100.00;101505.28;5226682;28;20067;-81
2021/08/09 10:16:50;;;;;;;6.32;2.03;;;;;;;19.02;100.00;101504.03;5225933;28;20315;-81
2021/08/09 10:19:21;;;;;;;5.65;1.75;;;;;;;18.97;100.00;101507.34;5224711;28;20399;-80
2021/08/09 10:21:52;;;;;;;3.90;1.80;;;;;;;18.96;100.00;101505.69;5226146;28;20031;-82
2021/08/09 10:24:38;;;;;;;4.97;1.90;;;;;;;19.25;100.00;101514.53;5225670;28;20508;-80
2021/08/09 10:27:09;;;;;;;6.78;1.73;;;;;;;19.33;100.00;101500.75;5225995;28;20055;-80
2021/08/09 10:29:58;;;;;;;7.22;1.95;;;;;;;19.40;100.00;101493.41;5225893;28;20017;-80
2021/08/09 10:32:42;;;;;;;6.07;1.70;;;;;;;19.89;100.00;101505.78;5225063;28;20037;-80
2021/08/09 10:35:33;;;;;;;5.93;1.67;;;;;;;19.99;100.00;101500.72;5225897;28;20017;-82
2021/08/09 10:38:17;;;;;;;6.82;1.60;;;;;;;20.08;100.00;101504.03;5226202;28;20029;-81
2021/08/09 10:41:08;;;;;;;7.80;2.10;;;;;;;20.23;100.00;101512.84;5225492;28;20497;-81
2021/08/09 10:44:04;;;;;;;5.88;1.83;;;;;;;19.94;100.00;101507.88;5225288;28;20295;-80
2021/08/09 10:46:36;;;;;;;5.72;2.10;;;;;;;19.73;100.00;101517.94;5224908;28;20036;-79
2021/08/09 10:49:08;;;;;;;9.57;1.77;;;;;;;19.50;100.00;101512.03;5224625;28;20021;-79
2021/08/09 10:51:50;;;;;;;5.15;1.90;;;;;;;19.66;100.00;101517.09;5224925;28;20409;-81
2021/08/09 10:54:30;;;;;;;7.50;1.85;;;;;;;19.60;100.00;101516.06;5226015;28;20037;-81
2021/08/09 10:57:03;;;;;;;4.07;1.70;;;;;;;19.74;100.00;101516.91;5224963;28;20033;-78
2021/08/09 10:59:39;;;;;;;6.82;2.05;;;;;;;19.76;100.00;101516.66;5225203;28;20035;-79
2021/08/09 11:02:22;;;;;;;4.97;2.03;;;;;;;19.79;100.00;101524.44;5225072;28;20060;-78
2021/08/09 11:05:11;;;;;;;6.40;1.83;;;;;;;19.90;100.00;101508.28;5206668;28;20027;-79
2021/08/09 11:07:44;;;;;;;8.45;1.83;;;;;;;20.28;100.00;101510.31;5224949;28;20055;-79
2021/08/09 11:10:54;;;;;;;4.40;1.48;;;;;;;20.26;100.00;101506.94;5225641;28;20466;-80
2021/08/09 11:13:25;;;;;;;7.00;2.10;;;;;;;20.55;100.00;101502.88;5212844;28;20036;-80
2021/08/09 11:15:58;;;;;;;4.78;2.00;;;;;;;20.95;100.00;101499.97;5224615;28;20063;-80
2021/08/09 11:18:29;;;;;;;7.13;1.75;;;;;;;21.17;100.00;101503.16;5224763;28;20036;-81
2021/08/09 11:21:03;;;;;;;6.47;1.60;;;;;;;21.05;100.00;101504.94;5224801;28;20024;-81
2021/08/09 11:23:37;;;;;;;9.98;2.00;;;;;;;21.03;100.00;101507.03;5224772;28;20033;-80
2021/08/09 11:26:20;;;;;;;2.75;1.55;;;;;;;21.14;100.00;101503.63;5223577;28;20047;-79
2021/08/09 11:28:58;;;;;;;4.82;1.67;;;;;;;21.62;100.00;101505.78;5224807;28;20032;-80
2021/08/09 11:31:44;;;;;;;6.72;2.00;;;;;;;21.75;100.00;101491.19;5206216;28;20454;-82
2021/08/09 11:34:15;;;;;;;5.15;1.58;;;;;;;21.92;100.00;101500.47;5224656;28;20075;-79
2021/08/09 11:36:45;;;;;;;6.75;1.85;;;;;;;21.77;100.00;101497.25;5224613;28;20025;-81
2021/08/09 11:39:16;;;;;;;7.32;2.10;;;;;;;21.96;100.00;101496.22;5223793;28;20025;-81
2021/08/09 11:41:54;;;;;;;5.43;2.13;;;;;;;21.91;100.00;101494.16;5223478;28;20063;-80